Denver, Colorado
Traffic Map
Current Weather Conditions
Denver, Colorado
Broken Clouds
Broken Clouds
-15°
Feels Like: -15°
Wind Chill: -15° Ceiling: 22000
Heat Index: -15° Visibility: 10mi
Dew Point: -16° Wind: 0mph
Humidity: 88% Direction: ° ()
Pressure: 30.18in Gusts: 0mph
Raw Report DataKBKF 090458Z 00000KT 10SM SCT120 BKN220 M15/M16 A3018 RMK AO2A SLP304 T11471163
Traffic Incident Summary
Active as of:
Severity:
Category:
InformationThere was an issue retrieving the traffic information for this location. Please try a different location or try again shortly.
Advertisements
Track Severe Weather on mobile